sensor_id;sensor_type;location;lat;lon;timestamp;P1;durP1;ratioP1;P2;durP2;ratioP2
21014;SDS011;19207;-23.482;-46.500;2022-11-14T00:00:30;18.48;;;10.77;;
21014;SDS011;19207;-23.482;-46.500;2022-11-14T00:03:35;28.12;;;13.10;;
21014;SDS011;19207;-23.482;-46.500;2022-11-14T00:06:41;27.08;;;13.18;;
21014;SDS011;19207;-23.482;-46.500;2022-11-14T00:09:45;19.12;;;12.25;;
21014;SDS011;19207;-23.482;-46.500;2022-11-14T00:12:50;22.10;;;11.95;;
21014;SDS011;19207;-23.482;-46.500;2022-11-14T00:15:55;18.90;;;10.38;;
21014;SDS011;19207;-23.482;-46.500;2022-11-14T00:19:00;17.05;;;9.95;;
21014;SDS011;19207;-23.482;-46.500;2022-11-14T00:22:06;21.92;;;10.95;;
21014;SDS011;19207;-23.482;-46.500;2022-11-14T00:25:11;18.98;;;10.25;;
21014;SDS011;19207;-23.482;-46.500;2022-11-14T00:28:16;18.17;;;8.93;;
21014;SDS011;19207;-23.482;-46.500;2022-11-14T00:31:21;16.83;;;9.18;;
21014;SDS011;19207;-23.482;-46.500;2022-11-14T00:34:26;20.90;;;9.55;;
21014;SDS011;19207;-23.482;-46.500;2022-11-14T00:37:31;17.37;;;10.68;;
21014;SDS011;19207;-23.482;-46.500;2022-11-14T00:40:36;18.90;;;10.95;;
21014;SDS011;19207;-23.482;-46.500;2022-11-14T00:43:41;21.20;;;11.27;;
21014;SDS011;19207;-23.482;-46.500;2022-11-14T00:46:47;21.40;;;13.25;;
21014;SDS011;19207;-23.482;-46.500;2022-11-14T00:49:52;24.45;;;14.00;;
21014;SDS011;19207;-23.482;-46.500;2022-11-14T00:52:57;24.98;;;13.80;;
21014;SDS011;19207;-23.482;-46.500;2022-11-14T00:56:02;28.25;;;13.62;;
21014;SDS011;19207;-23.482;-46.500;2022-11-14T00:59:07;18.77;;;11.40;;
21014;SDS011;19207;-23.482;-46.500;2022-11-14T01:02:11;20.83;;;11.25;;
21014;SDS011;19207;-23.482;-46.500;2022-11-14T01:05:16;25.23;;;13.62;;
21014;SDS011;19207;-23.482;-46.500;2022-11-14T01:08:21;25.00;;;13.07;;
21014;SDS011;19207;-23.482;-46.500;2022-11-14T01:11:26;26.85;;;15.68;;
21014;SDS011;19207;-23.482;-46.500;2022-11-14T01:14:31;23.42;;;14.35;;
21014;SDS011;19207;-23.482;-46.500;2022-11-14T01:17:36;47.62;;;17.87;;
21014;SDS011;19207;-23.482;-46.500;2022-11-14T01:20:42;41.33;;;14.30;;
21014;SDS011;19207;-23.482;-46.500;2022-11-14T01:23:47;25.33;;;13.32;;
21014;SDS011;19207;-23.482;-46.500;2022-11-14T01:26:55;30.37;;;13.60;;
21014;SDS011;19207;-23.482;-46.500;2022-11-14T01:30:00;30.73;;;15.63;;
21014;SDS011;19207;-23.482;-46.500;2022-11-14T01:33:05;39.45;;;16.70;;
21014;SDS011;19207;-23.482;-46.500;2022-11-14T01:36:10;43.55;;;22.55;;
21014;SDS011;19207;-23.482;-46.500;2022-11-14T01:39:15;51.58;;;26.55;;
21014;SDS011;19207;-23.482;-46.500;2022-11-14T01:42:20;56.42;;;29.83;;
21014;SDS011;19207;-23.482;-46.500;2022-11-14T01:52:13;40.67;;;16.98;;
21014;SDS011;19207;-23.482;-46.500;2022-11-14T01:55:19;57.22;;;18.27;;
21014;SDS011;19207;-23.482;-46.500;2022-11-14T01:58:24;40.15;;;16.42;;
21014;SDS011;19207;-23.482;-46.500;2022-11-14T02:01:31;42.50;;;16.50;;
21014;SDS011;19207;-23.482;-46.500;2022-11-14T02:04:38;35.75;;;14.73;;
21014;SDS011;19207;-23.482;-46.500;2022-11-14T02:07:44;44.28;;;15.43;;
21014;SDS011;19207;-23.482;-46.500;2022-11-14T02:10:49;37.78;;;16.37;;
21014;SDS011;19207;-23.482;-46.500;2022-11-14T02:13:54;42.62;;;15.65;;
21014;SDS011;19207;-23.482;-46.500;2022-11-14T02:16:59;43.78;;;16.62;;
21014;SDS011;19207;-23.482;-46.500;2022-11-14T02:23:10;49.20;;;20.45;;
21014;SDS011;19207;-23.482;-46.500;2022-11-14T02:26:16;50.55;;;21.58;;
21014;SDS011;19207;-23.482;-46.500;2022-11-14T02:29:22;45.67;;;21.42;;
21014;SDS011;19207;-23.482;-46.500;2022-11-14T02:32:27;51.20;;;22.67;;
21014;SDS011;19207;-23.482;-46.500;2022-11-14T02:35:32;58.05;;;24.08;;
21014;SDS011;19207;-23.482;-46.500;2022-11-14T02:38:37;56.78;;;25.77;;
21014;SDS011;19207;-23.482;-46.500;2022-11-14T02:41:42;53.70;;;25.52;;
21014;SDS011;19207;-23.482;-46.500;2022-11-14T02:44:47;46.35;;;24.17;;
21014;SDS011;19207;-23.482;-46.500;2022-11-14T02:47:52;51.35;;;23.12;;
21014;SDS011;19207;-23.482;-46.500;2022-11-14T02:50:57;48.45;;;20.90;;
21014;SDS011;19207;-23.482;-46.500;2022-11-14T02:54:02;42.80;;;19.50;;
21014;SDS011;19207;-23.482;-46.500;2022-11-14T02:57:07;44.38;;;19.80;;
21014;SDS011;19207;-23.482;-46.500;2022-11-14T03:00:12;43.58;;;21.50;;
21014;SDS011;19207;-23.482;-46.500;2022-11-14T03:03:17;46.20;;;22.45;;
21014;SDS011;19207;-23.482;-46.500;2022-11-14T03:06:22;38.60;;;22.85;;
21014;SDS011;19207;-23.482;-46.500;2022-11-14T03:09:27;45.33;;;25.42;;
21014;SDS011;19207;-23.482;-46.500;2022-11-14T03:12:32;60.35;;;29.80;;
21014;SDS011;19207;-23.482;-46.500;2022-11-14T03:15:37;59.40;;;30.77;;
21014;SDS011;19207;-23.482;-46.500;2022-11-14T03:18:42;59.60;;;29.33;;
21014;SDS011;19207;-23.482;-46.500;2022-11-14T03:21:47;69.40;;;32.33;;
21014;SDS011;19207;-23.482;-46.500;2022-11-14T03:24:52;65.28;;;31.62;;
21014;SDS011;19207;-23.482;-46.500;2022-11-14T03:27:58;62.45;;;27.92;;
21014;SDS011;19207;-23.482;-46.500;2022-11-14T03:31:03;61.37;;;28.75;;
21014;SDS011;19207;-23.482;-46.500;2022-11-14T03:34:09;53.53;;;25.55;;
21014;SDS011;19207;-23.482;-46.500;2022-11-14T03:37:14;55.03;;;24.70;;
21014;SDS011;19207;-23.482;-46.500;2022-11-14T03:40:19;59.22;;;29.83;;
21014;SDS011;19207;-23.482;-46.500;2022-11-14T03:43:24;54.55;;;24.00;;
21014;SDS011;19207;-23.482;-46.500;2022-11-14T03:46:29;59.40;;;23.65;;
21014;SDS011;19207;-23.482;-46.500;2022-11-14T03:49:35;58.20;;;24.30;;
21014;SDS011;19207;-23.482;-46.500;2022-11-14T03:52:40;55.55;;;24.25;;
21014;SDS011;19207;-23.482;-46.500;2022-11-14T03:55:45;67.93;;;25.33;;
21014;SDS011;19207;-23.482;-46.500;2022-11-14T03:58:50;63.17;;;25.55;;
21014;SDS011;19207;-23.482;-46.500;2022-11-14T04:01:55;63.90;;;25.05;;
21014;SDS011;19207;-23.482;-46.500;2022-11-14T04:05:00;59.67;;;23.65;;
21014;SDS011;19207;-23.482;-46.500;2022-11-14T04:08:05;59.92;;;23.67;;
21014;SDS011;19207;-23.482;-46.500;2022-11-14T04:11:10;54.55;;;22.92;;
21014;SDS011;19207;-23.482;-46.500;2022-11-14T04:14:15;55.58;;;21.67;;
21014;SDS011;19207;-23.482;-46.500;2022-11-14T04:17:20;46.17;;;21.00;;
21014;SDS011;19207;-23.482;-46.500;2022-11-14T04:20:25;50.80;;;21.58;;
21014;SDS011;19207;-23.482;-46.500;2022-11-14T04:23:29;52.83;;;20.48;;
21014;SDS011;19207;-23.482;-46.500;2022-11-14T04:26:34;54.53;;;21.55;;
21014;SDS011;19207;-23.482;-46.500;2022-11-14T04:29:40;55.35;;;21.23;;
21014;SDS011;19207;-23.482;-46.500;2022-11-14T04:32:45;48.22;;;23.65;;
21014;SDS011;19207;-23.482;-46.500;2022-11-14T04:35:51;45.08;;;21.75;;
21014;SDS011;19207;-23.482;-46.500;2022-11-14T04:38:56;39.40;;;19.55;;
21014;SDS011;19207;-23.482;-46.500;2022-11-14T04:42:01;38.53;;;19.85;;
21014;SDS011;19207;-23.482;-46.500;2022-11-14T04:45:06;34.03;;;18.30;;
21014;SDS011;19207;-23.482;-46.500;2022-11-14T04:48:11;36.83;;;19.37;;
21014;SDS011;19207;-23.482;-46.500;2022-11-14T04:51:17;33.22;;;18.08;;
21014;SDS011;19207;-23.482;-46.500;2022-11-14T04:54:22;43.90;;;22.08;;
21014;SDS011;19207;-23.482;-46.500;2022-11-14T04:57:27;47.25;;;22.55;;
21014;SDS011;19207;-23.482;-46.500;2022-11-14T05:00:33;42.65;;;22.02;;
21014;SDS011;19207;-23.482;-46.500;2022-11-14T05:03:38;38.08;;;21.77;;
21014;SDS011;19207;-23.482;-46.500;2022-11-14T05:06:43;42.05;;;23.08;;
21014;SDS011;19207;-23.482;-46.500;2022-11-14T05:09:48;38.30;;;22.10;;
21014;SDS011;19207;-23.482;-46.500;2022-11-14T05:12:53;38.05;;;20.70;;
21014;SDS011;19207;-23.482;-46.500;2022-11-14T05:15:58;39.33;;;22.45;;
21014;SDS011;19207;-23.482;-46.500;2022-11-14T05:19:03;43.05;;;23.30;;
21014;SDS011;19207;-23.482;-46.500;2022-11-14T05:22:08;42.10;;;22.10;;
21014;SDS011;19207;-23.482;-46.500;2022-11-14T05:25:12;41.63;;;23.42;;
21014;SDS011;19207;-23.482;-46.500;2022-11-14T05:28:17;41.75;;;23.80;;
21014;SDS011;19207;-23.482;-46.500;2022-11-14T05:31:22;50.97;;;25.45;;
21014;SDS011;19207;-23.482;-46.500;2022-11-14T05:34:27;49.08;;;25.45;;
21014;SDS011;19207;-23.482;-46.500;2022-11-14T05:37:33;54.47;;;27.48;;
21014;SDS011;19207;-23.482;-46.500;2022-11-14T05:40:38;49.17;;;25.25;;
21014;SDS011;19207;-23.482;-46.500;2022-11-14T05:43:42;52.38;;;27.10;;
21014;SDS011;19207;-23.482;-46.500;2022-11-14T05:46:47;56.20;;;27.00;;
21014;SDS011;19207;-23.482;-46.500;2022-11-14T05:49:53;57.88;;;28.60;;
21014;SDS011;19207;-23.482;-46.500;2022-11-14T05:52:58;56.05;;;27.83;;
21014;SDS011;19207;-23.482;-46.500;2022-11-14T05:56:04;58.15;;;28.25;;
21014;SDS011;19207;-23.482;-46.500;2022-11-14T05:59:10;62.85;;;29.52;;
21014;SDS011;19207;-23.482;-46.500;2022-11-14T06:02:15;58.95;;;27.73;;
21014;SDS011;19207;-23.482;-46.500;2022-11-14T06:05:20;54.75;;;26.10;;
21014;SDS011;19207;-23.482;-46.500;2022-11-14T06:08:26;57.50;;;28.05;;
21014;SDS011;19207;-23.482;-46.500;2022-11-14T06:11:31;59.13;;;28.73;;
21014;SDS011;19207;-23.482;-46.500;2022-11-14T06:14:36;61.33;;;28.55;;
21014;SDS011;19207;-23.482;-46.500;2022-11-14T06:17:42;56.05;;;27.30;;
21014;SDS011;19207;-23.482;-46.500;2022-11-14T06:20:47;57.47;;;27.75;;
21014;SDS011;19207;-23.482;-46.500;2022-11-14T06:23:51;66.18;;;30.83;;
21014;SDS011;19207;-23.482;-46.500;2022-11-14T06:26:56;66.45;;;30.15;;
21014;SDS011;19207;-23.482;-46.500;2022-11-14T06:30:01;60.60;;;29.67;;
21014;SDS011;19207;-23.482;-46.500;2022-11-14T06:33:07;68.57;;;31.45;;
21014;SDS011;19207;-23.482;-46.500;2022-11-14T06:36:12;72.82;;;32.92;;
21014;SDS011;19207;-23.482;-46.500;2022-11-14T06:39:17;76.28;;;33.03;;
21014;SDS011;19207;-23.482;-46.500;2022-11-14T06:42:22;78.12;;;34.75;;
21014;SDS011;19207;-23.482;-46.500;2022-11-14T06:45:27;83.07;;;34.58;;
21014;SDS011;19207;-23.482;-46.500;2022-11-14T06:48:32;77.68;;;35.75;;
21014;SDS011;19207;-23.482;-46.500;2022-11-14T06:51:37;81.12;;;35.25;;
21014;SDS011;19207;-23.482;-46.500;2022-11-14T06:54:43;90.53;;;36.53;;
21014;SDS011;19207;-23.482;-46.500;2022-11-14T06:57:51;83.00;;;33.22;;
21014;SDS011;19207;-23.482;-46.500;2022-11-14T07:01:01;74.05;;;31.58;;
21014;SDS011;19207;-23.482;-46.500;2022-11-14T07:04:08;80.10;;;33.88;;
21014;SDS011;19207;-23.482;-46.500;2022-11-14T07:07:13;79.78;;;34.17;;
21014;SDS011;19207;-23.482;-46.500;2022-11-14T07:10:18;75.85;;;33.30;;
21014;SDS011;19207;-23.482;-46.500;2022-11-14T07:13:23;68.90;;;31.67;;
21014;SDS011;19207;-23.482;-46.500;2022-11-14T07:16:28;73.22;;;32.60;;
21014;SDS011;19207;-23.482;-46.500;2022-11-14T07:19:34;81.10;;;32.42;;
21014;SDS011;19207;-23.482;-46.500;2022-11-14T07:22:39;83.75;;;32.63;;
21014;SDS011;19207;-23.482;-46.500;2022-11-14T07:25:44;69.45;;;32.13;;
21014;SDS011;19207;-23.482;-46.500;2022-11-14T07:28:49;73.97;;;32.15;;
21014;SDS011;19207;-23.482;-46.500;2022-11-14T07:31:54;72.85;;;31.00;;
21014;SDS011;19207;-23.482;-46.500;2022-11-14T07:34:59;68.75;;;31.62;;
21014;SDS011;19207;-23.482;-46.500;2022-11-14T07:38:04;75.70;;;32.72;;
21014;SDS011;19207;-23.482;-46.500;2022-11-14T07:41:10;85.53;;;34.30;;
21014;SDS011;19207;-23.482;-46.500;2022-11-14T07:44:16;87.05;;;35.97;;
21014;SDS011;19207;-23.482;-46.500;2022-11-14T07:47:21;88.82;;;34.92;;
21014;SDS011;19207;-23.482;-46.500;2022-11-14T07:50:26;86.85;;;34.78;;
21014;SDS011;19207;-23.482;-46.500;2022-11-14T07:53:32;86.93;;;36.22;;
21014;SDS011;19207;-23.482;-46.500;2022-11-14T07:56:37;89.47;;;39.10;;
21014;SDS011;19207;-23.482;-46.500;2022-11-14T07:59:42;125.72;;;50.15;;
21014;SDS011;19207;-23.482;-46.500;2022-11-14T08:02:47;133.65;;;52.25;;
21014;SDS011;19207;-23.482;-46.500;2022-11-14T08:06:00;125.78;;;50.80;;
21014;SDS011;19207;-23.482;-46.500;2022-11-14T08:09:04;140.20;;;55.60;;
21014;SDS011;19207;-23.482;-46.500;2022-11-14T08:12:09;111.55;;;48.25;;
21014;SDS011;19207;-23.482;-46.500;2022-11-14T08:15:14;81.53;;;37.92;;
21014;SDS011;19207;-23.482;-46.500;2022-11-14T08:18:19;38.00;;;20.77;;
21014;SDS011;19207;-23.482;-46.500;2022-11-14T08:21:24;29.50;;;17.20;;
21014;SDS011;19207;-23.482;-46.500;2022-11-14T08:24:29;29.33;;;16.52;;
21014;SDS011;19207;-23.482;-46.500;2022-11-14T08:27:35;26.05;;;15.77;;
21014;SDS011;19207;-23.482;-46.500;2022-11-14T08:30:40;44.58;;;27.05;;
21014;SDS011;19207;-23.482;-46.500;2022-11-14T08:33:44;32.28;;;19.52;;
21014;SDS011;19207;-23.482;-46.500;2022-11-14T08:36:50;37.70;;;21.35;;
21014;SDS011;19207;-23.482;-46.500;2022-11-14T08:39:55;42.53;;;23.25;;
21014;SDS011;19207;-23.482;-46.500;2022-11-14T08:43:00;44.70;;;24.58;;
21014;SDS011;19207;-23.482;-46.500;2022-11-14T08:46:06;30.98;;;17.35;;
21014;SDS011;19207;-23.482;-46.500;2022-11-14T08:49:11;24.67;;;14.25;;
21014;SDS011;19207;-23.482;-46.500;2022-11-14T08:52:15;24.20;;;13.50;;
21014;SDS011;19207;-23.482;-46.500;2022-11-14T08:55:20;20.00;;;12.77;;
21014;SDS011;19207;-23.482;-46.500;2022-11-14T08:58:28;15.07;;;9.00;;
21014;SDS011;19207;-23.482;-46.500;2022-11-14T09:01:33;20.17;;;10.63;;
21014;SDS011;19207;-23.482;-46.500;2022-11-14T09:04:38;20.27;;;12.50;;
21014;SDS011;19207;-23.482;-46.500;2022-11-14T09:07:45;23.62;;;14.02;;
21014;SDS011;19207;-23.482;-46.500;2022-11-14T09:10:50;23.80;;;13.57;;
21014;SDS011;19207;-23.482;-46.500;2022-11-14T09:13:55;22.50;;;13.50;;
21014;SDS011;19207;-23.482;-46.500;2022-11-14T09:17:00;19.58;;;11.95;;
21014;SDS011;19207;-23.482;-46.500;2022-11-14T09:20:25;21.85;;;11.68;;
21014;SDS011;19207;-23.482;-46.500;2022-11-14T09:23:32;16.20;;;10.88;;
21014;SDS011;19207;-23.482;-46.500;2022-11-14T09:26:37;16.83;;;9.52;;
21014;SDS011;19207;-23.482;-46.500;2022-11-14T09:29:42;17.98;;;10.38;;
21014;SDS011;19207;-23.482;-46.500;2022-11-14T09:32:48;15.05;;;9.20;;
21014;SDS011;19207;-23.482;-46.500;2022-11-14T09:36:03;15.35;;;8.82;;
21014;SDS011;19207;-23.482;-46.500;2022-11-14T09:39:09;17.00;;;10.02;;
21014;SDS011;19207;-23.482;-46.500;2022-11-14T09:42:18;22.58;;;15.77;;
21014;SDS011;19207;-23.482;-46.500;2022-11-14T09:45:26;24.40;;;15.40;;
21014;SDS011;19207;-23.482;-46.500;2022-11-14T09:48:31;28.15;;;16.40;;
21014;SDS011;19207;-23.482;-46.500;2022-11-14T09:51:38;28.45;;;15.18;;
21014;SDS011;19207;-23.482;-46.500;2022-11-14T09:54:51;16.40;;;8.82;;
21014;SDS011;19207;-23.482;-46.500;2022-11-14T09:57:57;17.25;;;7.22;;
21014;SDS011;19207;-23.482;-46.500;2022-11-14T10:04:42;21.92;;;7.95;;
21014;SDS011;19207;-23.482;-46.500;2022-11-14T10:11:16;16.52;;;7.47;;
21014;SDS011;19207;-23.482;-46.500;2022-11-14T10:27:26;10.52;;;5.20;;
21014;SDS011;19207;-23.482;-46.500;2022-11-14T10:30:40;12.77;;;5.93;;
21014;SDS011;19207;-23.482;-46.500;2022-11-14T10:34:03;7.22;;;4.53;;
21014;SDS011;19207;-23.482;-46.500;2022-11-14T10:37:14;8.57;;;4.85;;
21014;SDS011;19207;-23.482;-46.500;2022-11-14T10:40:28;10.65;;;5.85;;
21014;SDS011;19207;-23.482;-46.500;2022-11-14T10:43:40;10.52;;;5.28;;
21014;SDS011;19207;-23.482;-46.500;2022-11-14T10:46:47;12.63;;;5.07;;
21014;SDS011;19207;-23.482;-46.500;2022-11-14T10:49:54;9.30;;;5.60;;
21014;SDS011;19207;-23.482;-46.500;2022-11-14T10:53:02;13.27;;;5.12;;
21014;SDS011;19207;-23.482;-46.500;2022-11-14T10:56:11;8.13;;;4.10;;
21014;SDS011;19207;-23.482;-46.500;2022-11-14T10:59:17;15.02;;;5.97;;
21014;SDS011;19207;-23.482;-46.500;2022-11-14T11:02:23;9.70;;;5.78;;
21014;SDS011;19207;-23.482;-46.500;2022-11-14T11:05:31;16.35;;;6.35;;
21014;SDS011;19207;-23.482;-46.500;2022-11-14T11:08:48;13.60;;;5.93;;
21014;SDS011;19207;-23.482;-46.500;2022-11-14T11:12:21;10.52;;;5.65;;
21014;SDS011;19207;-23.482;-46.500;2022-11-14T11:15:27;11.18;;;5.30;;
21014;SDS011;19207;-23.482;-46.500;2022-11-14T11:18:36;12.05;;;6.70;;
21014;SDS011;19207;-23.482;-46.500;2022-11-14T11:21:48;11.27;;;5.47;;
21014;SDS011;19207;-23.482;-46.500;2022-11-14T11:24:53;12.25;;;5.53;;
21014;SDS011;19207;-23.482;-46.500;2022-11-14T11:31:20;10.32;;;6.78;;
21014;SDS011;19207;-23.482;-46.500;2022-11-14T11:34:31;18.12;;;6.55;;
21014;SDS011;19207;-23.482;-46.500;2022-11-14T11:37:48;9.75;;;4.97;;
21014;SDS011;19207;-23.482;-46.500;2022-11-14T11:44:18;9.13;;;4.40;;
21014;SDS011;19207;-23.482;-46.500;2022-11-14T11:47:24;7.50;;;3.50;;
21014;SDS011;19207;-23.482;-46.500;2022-11-14T11:50:29;4.03;;;2.95;;
21014;SDS011;19207;-23.482;-46.500;2022-11-14T11:53:38;4.97;;;3.03;;
21014;SDS011;19207;-23.482;-46.500;2022-11-14T11:56:46;11.48;;;3.20;;
21014;SDS011;19207;-23.482;-46.500;2022-11-14T11:59:53;4.12;;;3.00;;
21014;SDS011;19207;-23.482;-46.500;2022-11-14T12:03:03;6.10;;;3.40;;
21014;SDS011;19207;-23.482;-46.500;2022-11-14T12:06:13;6.25;;;3.10;;
21014;SDS011;19207;-23.482;-46.500;2022-11-14T12:09:22;4.93;;;3.00;;
21014;SDS011;19207;-23.482;-46.500;2022-11-14T12:12:51;4.05;;;3.00;;
21014;SDS011;19207;-23.482;-46.500;2022-11-14T12:19:13;3.90;;;2.80;;
21014;SDS011;19207;-23.482;-46.500;2022-11-14T12:31:42;7.15;;;3.10;;
21014;SDS011;19207;-23.482;-46.500;2022-11-14T12:34:48;3.87;;;2.80;;
21014;SDS011;19207;-23.482;-46.500;2022-11-14T12:37:55;4.80;;;2.90;;
21014;SDS011;19207;-23.482;-46.500;2022-11-14T12:41:01;3.87;;;3.10;;
21014;SDS011;19207;-23.482;-46.500;2022-11-14T12:47:33;8.23;;;2.85;;
21014;SDS011;19207;-23.482;-46.500;2022-11-14T12:50:42;5.32;;;3.08;;
21014;SDS011;19207;-23.482;-46.500;2022-11-14T12:53:47;7.47;;;3.17;;
21014;SDS011;19207;-23.482;-46.500;2022-11-14T12:56:57;7.78;;;3.60;;
21014;SDS011;19207;-23.482;-46.500;2022-11-14T13:00:03;6.43;;;3.33;;
21014;SDS011;19207;-23.482;-46.500;2022-11-14T13:06:43;5.40;;;3.05;;
21014;SDS011;19207;-23.482;-46.500;2022-11-14T13:09:57;7.35;;;3.70;;
21014;SDS011;19207;-23.482;-46.500;2022-11-14T13:13:11;11.32;;;3.90;;
21014;SDS011;19207;-23.482;-46.500;2022-11-14T13:16:34;9.05;;;4.25;;
21014;SDS011;19207;-23.482;-46.500;2022-11-14T13:19:58;13.35;;;4.82;;
21014;SDS011;19207;-23.482;-46.500;2022-11-14T13:35:48;7.20;;;4.05;;
21014;SDS011;19207;-23.482;-46.500;2022-11-14T13:39:04;8.20;;;3.90;;
21014;SDS011;19207;-23.482;-46.500;2022-11-14T13:51:57;11.18;;;3.60;;
21014;SDS011;19207;-23.482;-46.500;2022-11-14T13:55:02;10.85;;;4.93;;
21014;SDS011;19207;-23.482;-46.500;2022-11-14T14:11:16;4.25;;;3.28;;
21014;SDS011;19207;-23.482;-46.500;2022-11-14T14:17:55;5.47;;;2.60;;
21014;SDS011;19207;-23.482;-46.500;2022-11-14T14:21:08;9.05;;;2.85;;
21014;SDS011;19207;-23.482;-46.500;2022-11-14T14:27:36;14.20;;;6.20;;
21014;SDS011;19207;-23.482;-46.500;2022-11-14T14:30:59;11.38;;;5.70;;
21014;SDS011;19207;-23.482;-46.500;2022-11-14T14:34:24;5.40;;;3.40;;
21014;SDS011;19207;-23.482;-46.500;2022-11-14T14:37:30;9.30;;;5.20;;
21014;SDS011;19207;-23.482;-46.500;2022-11-14T14:40:36;18.27;;;7.05;;
21014;SDS011;19207;-23.482;-46.500;2022-11-14T14:43:42;10.73;;;4.72;;
21014;SDS011;19207;-23.482;-46.500;2022-11-14T14:46:47;9.23;;;4.53;;
21014;SDS011;19207;-23.482;-46.500;2022-11-14T14:49:52;12.70;;;4.20;;
21014;SDS011;19207;-23.482;-46.500;2022-11-14T14:53:01;7.45;;;3.97;;
21014;SDS011;19207;-23.482;-46.500;2022-11-14T14:56:17;18.02;;;5.28;;
21014;SDS011;19207;-23.482;-46.500;2022-11-14T14:59:23;15.00;;;5.18;;
21014;SDS011;19207;-23.482;-46.500;2022-11-14T15:02:28;17.67;;;5.57;;
21014;SDS011;19207;-23.482;-46.500;2022-11-14T15:05:34;16.98;;;5.68;;
21014;SDS011;19207;-23.482;-46.500;2022-11-14T15:08:39;7.12;;;4.53;;
21014;SDS011;19207;-23.482;-46.500;2022-11-14T15:11:45;3.80;;;2.40;;
21014;SDS011;19207;-23.482;-46.500;2022-11-14T15:14:51;3.62;;;2.35;;
21014;SDS011;19207;-23.482;-46.500;2022-11-14T15:17:57;6.90;;;2.70;;
21014;SDS011;19207;-23.482;-46.500;2022-11-14T15:24:16;2.95;;;2.30;;
21014;SDS011;19207;-23.482;-46.500;2022-11-14T15:27:21;3.90;;;2.45;;
21014;SDS011;19207;-23.482;-46.500;2022-11-14T15:30:28;6.87;;;2.40;;
21014;SDS011;19207;-23.482;-46.500;2022-11-14T15:33:39;4.90;;;2.30;;
21014;SDS011;19207;-23.482;-46.500;2022-11-14T15:40:14;3.60;;;2.47;;
21014;SDS011;19207;-23.482;-46.500;2022-11-14T15:46:45;4.07;;;2.25;;
21014;SDS011;19207;-23.482;-46.500;2022-11-14T15:53:20;2.35;;;2.15;;
21014;SDS011;19207;-23.482;-46.500;2022-11-14T15:56:25;3.47;;;2.10;;
21014;SDS011;19207;-23.482;-46.500;2022-11-14T15:59:33;3.97;;;2.50;;
21014;SDS011;19207;-23.482;-46.500;2022-11-14T16:02:42;6.50;;;2.30;;
21014;SDS011;19207;-23.482;-46.500;2022-11-14T16:05:48;2.97;;;2.10;;
21014;SDS011;19207;-23.482;-46.500;2022-11-14T16:08:52;7.57;;;2.22;;
21014;SDS011;19207;-23.482;-46.500;2022-11-14T16:11:58;5.28;;;2.05;;
21014;SDS011;19207;-23.482;-46.500;2022-11-14T16:15:02;2.62;;;2.10;;
21014;SDS011;19207;-23.482;-46.500;2022-11-14T16:18:07;5.60;;;2.55;;
21014;SDS011;19207;-23.482;-46.500;2022-11-14T16:21:12;5.47;;;2.05;;
21014;SDS011;19207;-23.482;-46.500;2022-11-14T16:24:20;2.22;;;2.00;;
21014;SDS011;19207;-23.482;-46.500;2022-11-14T16:27:26;2.95;;;2.30;;
21014;SDS011;19207;-23.482;-46.500;2022-11-14T16:30:31;2.87;;;2.00;;
21014;SDS011;19207;-23.482;-46.500;2022-11-14T16:33:37;5.82;;;2.30;;
21014;SDS011;19207;-23.482;-46.500;2022-11-14T16:36:42;3.62;;;2.10;;
21014;SDS011;19207;-23.482;-46.500;2022-11-14T16:39:48;2.35;;;2.10;;
21014;SDS011;19207;-23.482;-46.500;2022-11-14T16:42:54;3.87;;;2.12;;
21014;SDS011;19207;-23.482;-46.500;2022-11-14T16:46:03;3.15;;;2.50;;
21014;SDS011;19207;-23.482;-46.500;2022-11-14T16:49:12;4.43;;;2.20;;
21014;SDS011;19207;-23.482;-46.500;2022-11-14T16:52:17;4.97;;;2.00;;
21014;SDS011;19207;-23.482;-46.500;2022-11-14T16:55:22;5.70;;;2.10;;
21014;SDS011;19207;-23.482;-46.500;2022-11-14T16:58:27;5.62;;;2.10;;
21014;SDS011;19207;-23.482;-46.500;2022-11-14T17:01:32;3.25;;;2.22;;
21014;SDS011;19207;-23.482;-46.500;2022-11-14T17:04:38;5.10;;;2.00;;
21014;SDS011;19207;-23.482;-46.500;2022-11-14T17:07:45;3.25;;;2.37;;
21014;SDS011;19207;-23.482;-46.500;2022-11-14T17:10:50;5.62;;;2.10;;
21014;SDS011;19207;-23.482;-46.500;2022-11-14T17:13:55;2.60;;;2.20;;
21014;SDS011;19207;-23.482;-46.500;2022-11-14T17:17:00;3.53;;;2.30;;
21014;SDS011;19207;-23.482;-46.500;2022-11-14T17:20:05;3.58;;;2.42;;
21014;SDS011;19207;-23.482;-46.500;2022-11-14T17:23:11;4.12;;;2.30;;
21014;SDS011;19207;-23.482;-46.500;2022-11-14T17:26:16;3.55;;;2.17;;
21014;SDS011;19207;-23.482;-46.500;2022-11-14T17:29:20;7.40;;;2.42;;
21014;SDS011;19207;-23.482;-46.500;2022-11-14T17:32:25;4.35;;;2.40;;
21014;SDS011;19207;-23.482;-46.500;2022-11-14T17:35:34;3.67;;;2.33;;
21014;SDS011;19207;-23.482;-46.500;2022-11-14T17:38:39;3.70;;;2.40;;
21014;SDS011;19207;-23.482;-46.500;2022-11-14T17:41:44;2.80;;;2.03;;
21014;SDS011;19207;-23.482;-46.500;2022-11-14T17:44:49;5.62;;;2.10;;
21014;SDS011;19207;-23.482;-46.500;2022-11-14T17:47:55;2.33;;;2.00;;
21014;SDS011;19207;-23.482;-46.500;2022-11-14T17:51:08;3.12;;;2.05;;
21014;SDS011;19207;-23.482;-46.500;2022-11-14T17:54:14;3.45;;;2.22;;
21014;SDS011;19207;-23.482;-46.500;2022-11-14T17:57:19;5.47;;;2.20;;
21014;SDS011;19207;-23.482;-46.500;2022-11-14T18:00:24;3.15;;;2.28;;
21014;SDS011;19207;-23.482;-46.500;2022-11-14T18:03:29;8.38;;;2.33;;
21014;SDS011;19207;-23.482;-46.500;2022-11-14T18:06:34;3.17;;;2.00;;
21014;SDS011;19207;-23.482;-46.500;2022-11-14T18:09:40;6.18;;;2.10;;
21014;SDS011;19207;-23.482;-46.500;2022-11-14T18:12:44;5.80;;;2.20;;
21014;SDS011;19207;-23.482;-46.500;2022-11-14T18:15:49;5.05;;;2.17;;
21014;SDS011;19207;-23.482;-46.500;2022-11-14T18:18:54;10.18;;;2.67;;
21014;SDS011;19207;-23.482;-46.500;2022-11-14T18:21:59;4.80;;;2.33;;
21014;SDS011;19207;-23.482;-46.500;2022-11-14T18:25:04;4.87;;;2.40;;
21014;SDS011;19207;-23.482;-46.500;2022-11-14T18:28:09;4.85;;;2.17;;
21014;SDS011;19207;-23.482;-46.500;2022-11-14T18:31:13;2.35;;;2.00;;
21014;SDS011;19207;-23.482;-46.500;2022-11-14T18:34:18;3.33;;;2.20;;
21014;SDS011;19207;-23.482;-46.500;2022-11-14T18:37:23;2.72;;;2.28;;
21014;SDS011;19207;-23.482;-46.500;2022-11-14T18:40:28;6.28;;;2.75;;
21014;SDS011;19207;-23.482;-46.500;2022-11-14T18:43:33;2.97;;;2.30;;
21014;SDS011;19207;-23.482;-46.500;2022-11-14T18:46:38;6.95;;;2.87;;
21014;SDS011;19207;-23.482;-46.500;2022-11-14T18:49:43;3.17;;;2.60;;
21014;SDS011;19207;-23.482;-46.500;2022-11-14T18:52:48;3.75;;;2.50;;
21014;SDS011;19207;-23.482;-46.500;2022-11-14T18:55:52;3.40;;;2.58;;
21014;SDS011;19207;-23.482;-46.500;2022-11-14T18:58:57;4.05;;;2.40;;
21014;SDS011;19207;-23.482;-46.500;2022-11-14T19:02:03;4.05;;;2.62;;
21014;SDS011;19207;-23.482;-46.500;2022-11-14T19:05:08;3.58;;;2.30;;
21014;SDS011;19207;-23.482;-46.500;2022-11-14T19:08:17;4.32;;;2.60;;
21014;SDS011;19207;-23.482;-46.500;2022-11-14T19:11:23;3.87;;;2.60;;
21014;SDS011;19207;-23.482;-46.500;2022-11-14T19:14:47;3.00;;;2.20;;
21014;SDS011;19207;-23.482;-46.500;2022-11-14T19:17:53;2.70;;;2.20;;
21014;SDS011;19207;-23.482;-46.500;2022-11-14T19:20:59;3.28;;;2.28;;
21014;SDS011;19207;-23.482;-46.500;2022-11-14T19:24:05;4.97;;;2.50;;
21014;SDS011;19207;-23.482;-46.500;2022-11-14T19:27:10;4.15;;;2.58;;